McKenzie Crossroads, South Carolina
Current Conditions -  °F | °C
As of 7:53 AM on Sunday 21 Dec 2014 (Local Time) from KFLO Reporting Station
Haze Haze  
Wind Chill: 34°   Ceiling: 4800
Heat Index: 40°   Visibility: 6mi
Dew Point: 36°   Wind: 8mph
Humidity: 86%   Direction: 30°NNE
Pressure: 30.26"   Gusts: NA
Location:  33.9279°N, 79.9042°W
Report Text: KFLO 211253Z 03007KT 6SM BR BKN048 OVC085 04/02 A3026 RMK AO2 SLP245 T00440022
Loading
Personal Weather Stations






























Interactive Weather Map New forecast layout! Learn more

10-Day Weather Forecast

Advertisements
Track Severe Weather on mobile